TFFF

Martinique Aimé Césaire International Airport

Fort-de-France, Martinique
TAF TFFF 181700Z 1818/1918 12014KT 9999 SCT030 PROB40 TEMPO 1903/1918 4000 SHRA SCT018TCU
Issued Valid From Valid To
Dec-18 @ 17:00 UTC
(6 hours ago)
Dec-18 @ 18:00 UTC
(5 hours ago)
Dec-19 @ 18:00 UTC
(in 19 hours)
Dec-18 @ 18:00 to Dec-19 @ 18:00
TAF TFFF 181700Z 1818/1918 12014KT 9999 SCT030
Wind Visibility Clouds
120° at 14 knots 10,000+ meters
  • Scattered at 3,000' AGL
Temporary  (Probability 40%) Dec-19 @ 03:00 to Dec-19 @ 18:00
PROB40 TEMPO 1903/1918 4000 SHRA SCT018TCU
Visibility Clouds Conditions
4,007 meters
  • Scattered at 1,800' AGL
  • Rain
TAF TFFF 181700Z 1818/1918 12014KT 9999 SCT030 PROB40 TEMPO 1903/1918 4000 SHRA SCT018TCU
Issued Dec-18 @ 17:00 UTC
(6 hours ago)
Valid From Dec-18 @ 18:00 UTC
(5 hours ago)
Valid To Dec-19 @ 18:00 UTC
(in 19 hours)
Dec-18 @ 18:00 - Dec-19 @ 18:00
Wind Visibility
120° at 14 knots 10,000+ meters
Clouds
  • Scattered at 3,000' AGL
Probability 40% Temporary Dec-19 @ 03:00 - Dec-19 @ 18:00
Clouds
  • Scattered at 1,800' AGL
Conditions
  • Rain